sensor_id;sensor_type;location;lat;lon;timestamp;P1;durP1;ratioP1;P2;durP2;ratioP2
4385;SDS011;2207;53.540;10.042;2022-09-09T00:01:32;131.10;;;45.57;;
4385;SDS011;2207;53.540;10.042;2022-09-09T00:04:05;131.60;;;49.03;;
4385;SDS011;2207;53.540;10.042;2022-09-09T00:09:12;131.40;;;48.90;;
4385;SDS011;2207;53.540;10.042;2022-09-09T00:11:43;121.87;;;47.83;;
4385;SDS011;2207;53.540;10.042;2022-09-09T00:14:15;124.07;;;46.50;;
4385;SDS011;2207;53.540;10.042;2022-09-09T05:39:37;27.30;;;18.95;;
4385;SDS011;2207;53.540;10.042;2022-09-09T05:44:34;25.83;;;17.17;;
4385;SDS011;2207;53.540;10.042;2022-09-09T05:47:02;24.97;;;18.53;;
4385;SDS011;2207;53.540;10.042;2022-09-09T05:49:29;28.70;;;18.50;;
4385;SDS011;2207;53.540;10.042;2022-09-09T05:51:57;25.13;;;17.07;;
4385;SDS011;2207;53.540;10.042;2022-09-09T05:54:29;24.13;;;17.50;;
4385;SDS011;2207;53.540;10.042;2022-09-09T05:56:57;22.33;;;13.40;;
4385;SDS011;2207;53.540;10.042;2022-09-09T05:59:24;17.00;;;13.70;;
4385;SDS011;2207;53.540;10.042;2022-09-09T06:01:54;11.30;;;9.87;;
4385;SDS011;2207;53.540;10.042;2022-09-09T06:04:21;12.87;;;11.27;;
4385;SDS011;2207;53.540;10.042;2022-09-09T06:06:49;12.50;;;10.27;;
4385;SDS011;2207;53.540;10.042;2022-09-09T06:09:16;12.80;;;9.33;;
4385;SDS011;2207;53.540;10.042;2022-09-09T06:11:44;14.43;;;11.33;;
4385;SDS011;2207;53.540;10.042;2022-09-09T06:14:10;12.80;;;10.30;;
4385;SDS011;2207;53.540;10.042;2022-09-09T07:06:17;8.23;;;5.50;;
4385;SDS011;2207;53.540;10.042;2022-09-09T07:08:52;5.50;;;5.00;;
4385;SDS011;2207;53.540;10.042;2022-09-09T07:11:25;4.50;;;4.07;;
4385;SDS011;2207;53.540;10.042;2022-09-09T07:13:59;6.17;;;4.37;;
4385;SDS011;2207;53.540;10.042;2022-09-09T07:16:33;6.13;;;4.20;;
4385;SDS011;2207;53.540;10.042;2022-09-09T07:19:06;4.97;;;4.20;;
4385;SDS011;2207;53.540;10.042;2022-09-09T07:56:59;8.30;;;3.90;;
4385;SDS011;2207;53.540;10.042;2022-09-09T09:10:46;3.97;;;2.90;;
4385;SDS011;2207;53.540;10.042;2022-09-09T09:13:21;8.43;;;3.23;;
4385;SDS011;2207;53.540;10.042;2022-09-09T09:16:06;3.90;;;2.80;;
4385;SDS011;2207;53.540;10.042;2022-09-09T09:43:57;4.97;;;3.33;;
4385;SDS011;2207;53.540;10.042;2022-09-09T09:46:32;4.40;;;2.30;;
4385;SDS011;2207;53.540;10.042;2022-09-09T10:04:46;3.43;;;2.10;;
4385;SDS011;2207;53.540;10.042;2022-09-09T10:07:33;2.80;;;2.30;;
4385;SDS011;2207;53.540;10.042;2022-09-09T10:10:08;3.37;;;1.90;;
4385;SDS011;2207;53.540;10.042;2022-09-09T10:12:45;3.33;;;2.20;;
4385;SDS011;2207;53.540;10.042;2022-09-09T10:28:45;3.50;;;2.00;;
4385;SDS011;2207;53.540;10.042;2022-09-09T12:36:21;1.80;;;1.20;;
4385;SDS011;2207;53.540;10.042;2022-09-09T12:48:47;3.07;;;1.40;;
4385;SDS011;2207;53.540;10.042;2022-09-09T16:11:31;2.33;;;1.50;;
4385;SDS011;2207;53.540;10.042;2022-09-09T16:14:00;1.30;;;1.20;;
4385;SDS011;2207;53.540;10.042;2022-09-09T16:16:29;2.73;;;1.37;;
4385;SDS011;2207;53.540;10.042;2022-09-09T16:18:57;1.37;;;1.00;;
4385;SDS011;2207;53.540;10.042;2022-09-09T16:21:26;1.10;;;1.10;;
4385;SDS011;2207;53.540;10.042;2022-09-09T16:23:55;4.33;;;2.37;;
4385;SDS011;2207;53.540;10.042;2022-09-09T16:26:24;1.47;;;1.37;;
4385;SDS011;2207;53.540;10.042;2022-09-09T16:28:52;1.77;;;1.03;;
4385;SDS011;2207;53.540;10.042;2022-09-09T17:18:11;1.53;;;1.43;;
4385;SDS011;2207;53.540;10.042;2022-09-09T17:20:41;2.87;;;1.73;;
4385;SDS011;2207;53.540;10.042;2022-09-09T17:23:09;1.87;;;1.50;;
4385;SDS011;2207;53.540;10.042;2022-09-09T17:25:37;2.03;;;1.80;;
4385;SDS011;2207;53.540;10.042;2022-09-09T17:28:05;3.43;;;1.77;;
4385;SDS011;2207;53.540;10.042;2022-09-09T17:30:33;2.00;;;1.90;;
4385;SDS011;2207;53.540;10.042;2022-09-09T17:57:38;5.80;;;3.20;;
4385;SDS011;2207;53.540;10.042;2022-09-09T18:07:30;6.23;;;3.10;;
4385;SDS011;2207;53.540;10.042;2022-09-09T18:09:57;7.23;;;4.20;;
4385;SDS011;2207;53.540;10.042;2022-09-09T18:12:24;6.73;;;3.70;;
4385;SDS011;2207;53.540;10.042;2022-09-09T18:14:53;3.63;;;3.43;;
4385;SDS011;2207;53.540;10.042;2022-09-09T18:17:21;5.33;;;4.40;;
4385;SDS011;2207;53.540;10.042;2022-09-09T18:19:52;5.70;;;3.97;;
4385;SDS011;2207;53.540;10.042;2022-09-09T18:22:19;11.17;;;5.07;;
4385;SDS011;2207;53.540;10.042;2022-09-09T18:24:47;8.10;;;4.83;;
4385;SDS011;2207;53.540;10.042;2022-09-09T18:27:14;5.10;;;4.60;;
4385;SDS011;2207;53.540;10.042;2022-09-09T18:29:41;6.10;;;4.47;;
4385;SDS011;2207;53.540;10.042;2022-09-09T18:32:09;6.13;;;4.73;;
4385;SDS011;2207;53.540;10.042;2022-09-09T18:34:40;7.87;;;5.13;;
4385;SDS011;2207;53.540;10.042;2022-09-09T18:37:07;8.10;;;5.60;;
4385;SDS011;2207;53.540;10.042;2022-09-09T18:39:34;7.77;;;6.00;;
4385;SDS011;2207;53.540;10.042;2022-09-09T18:42:01;16.10;;;8.67;;
4385;SDS011;2207;53.540;10.042;2022-09-09T18:44:30;7.05;;;6.25;;
4385;SDS011;2207;53.540;10.042;2022-09-09T18:46:59;7.13;;;6.43;;
4385;SDS011;2207;53.540;10.042;2022-09-09T18:49:27;12.77;;;6.70;;
4385;SDS011;2207;53.540;10.042;2022-09-09T18:51:55;8.23;;;6.80;;
4385;SDS011;2207;53.540;10.042;2022-09-09T18:54:24;8.10;;;7.30;;
4385;SDS011;2207;53.540;10.042;2022-09-09T18:56:53;9.67;;;8.07;;
4385;SDS011;2207;53.540;10.042;2022-09-09T18:59:21;9.33;;;7.40;;
4385;SDS011;2207;53.540;10.042;2022-09-09T19:01:50;14.87;;;6.93;;
4385;SDS011;2207;53.540;10.042;2022-09-09T19:04:19;12.10;;;9.30;;
4385;SDS011;2207;53.540;10.042;2022-09-09T19:06:48;10.10;;;7.20;;
4385;SDS011;2207;53.540;10.042;2022-09-09T19:09:23;10.13;;;7.63;;
4385;SDS011;2207;53.540;10.042;2022-09-09T19:11:51;11.43;;;6.47;;
4385;SDS011;2207;53.540;10.042;2022-09-09T19:14:18;8.33;;;5.37;;
4385;SDS011;2207;53.540;10.042;2022-09-09T19:16:45;9.67;;;5.80;;
4385;SDS011;2207;53.540;10.042;2022-09-09T19:19:13;6.83;;;5.90;;
4385;SDS011;2207;53.540;10.042;2022-09-09T19:21:42;5.87;;;4.73;;
4385;SDS011;2207;53.540;10.042;2022-09-09T19:24:10;6.90;;;6.20;;
4385;SDS011;2207;53.540;10.042;2022-09-09T19:26:40;6.77;;;5.53;;
4385;SDS011;2207;53.540;10.042;2022-09-09T19:29:10;7.67;;;5.47;;
4385;SDS011;2207;53.540;10.042;2022-09-09T19:31:39;9.00;;;5.67;;
4385;SDS011;2207;53.540;10.042;2022-09-09T19:34:07;4.60;;;4.20;;
4385;SDS011;2207;53.540;10.042;2022-09-09T19:36:34;7.90;;;4.90;;
4385;SDS011;2207;53.540;10.042;2022-09-09T19:39:01;5.20;;;4.80;;
4385;SDS011;2207;53.540;10.042;2022-09-09T19:41:29;9.83;;;4.90;;
4385;SDS011;2207;53.540;10.042;2022-09-09T19:44:01;6.20;;;4.73;;
4385;SDS011;2207;53.540;10.042;2022-09-09T19:46:30;7.90;;;4.70;;
4385;SDS011;2207;53.540;10.042;2022-09-09T19:48:58;5.13;;;4.53;;
4385;SDS011;2207;53.540;10.042;2022-09-09T19:51:27;6.60;;;4.60;;
4385;SDS011;2207;53.540;10.042;2022-09-09T19:53:57;5.17;;;4.67;;
4385;SDS011;2207;53.540;10.042;2022-09-09T19:56:27;6.30;;;4.60;;
4385;SDS011;2207;53.540;10.042;2022-09-09T19:58:55;7.17;;;5.10;;
4385;SDS011;2207;53.540;10.042;2022-09-09T20:01:25;6.63;;;4.40;;
4385;SDS011;2207;53.540;10.042;2022-09-09T20:03:53;5.60;;;5.10;;
4385;SDS011;2207;53.540;10.042;2022-09-09T20:06:22;11.53;;;4.70;;
4385;SDS011;2207;53.540;10.042;2022-09-09T20:08:51;5.43;;;5.00;;
4385;SDS011;2207;53.540;10.042;2022-09-09T20:11:18;6.23;;;5.57;;
4385;SDS011;2207;53.540;10.042;2022-09-09T20:13:46;6.10;;;5.30;;
4385;SDS011;2207;53.540;10.042;2022-09-09T21:42:24;3.60;;;3.33;;
4385;SDS011;2207;53.540;10.042;2022-09-09T21:44:53;3.23;;;2.37;;
4385;SDS011;2207;53.540;10.042;2022-09-09T21:47:20;6.70;;;3.37;;
4385;SDS011;2207;53.540;10.042;2022-09-09T21:49:47;3.60;;;3.20;;
4385;SDS011;2207;53.540;10.042;2022-09-09T21:52:15;3.27;;;2.83;;
4385;SDS011;2207;53.540;10.042;2022-09-09T21:54:42;3.00;;;2.70;;
4385;SDS011;2207;53.540;10.042;2022-09-09T21:57:08;3.03;;;2.80;;
4385;SDS011;2207;53.540;10.042;2022-09-09T21:59:38;3.70;;;2.47;;
4385;SDS011;2207;53.540;10.042;2022-09-09T22:02:07;4.67;;;3.23;;
4385;SDS011;2207;53.540;10.042;2022-09-09T22:04:35;4.17;;;3.30;;
4385;SDS011;2207;53.540;10.042;2022-09-09T22:07:02;6.00;;;3.50;;
4385;SDS011;2207;53.540;10.042;2022-09-09T22:09:30;5.10;;;3.47;;
4385;SDS011;2207;53.540;10.042;2022-09-09T22:11:57;4.40;;;3.57;;
4385;SDS011;2207;53.540;10.042;2022-09-09T22:14:24;5.93;;;2.77;;
4385;SDS011;2207;53.540;10.042;2022-09-09T22:16:51;4.80;;;4.17;;
4385;SDS011;2207;53.540;10.042;2022-09-09T22:19:20;5.30;;;3.80;;
4385;SDS011;2207;53.540;10.042;2022-09-09T22:21:47;13.73;;;4.43;;
4385;SDS011;2207;53.540;10.042;2022-09-09T22:24:14;4.33;;;3.93;;
4385;SDS011;2207;53.540;10.042;2022-09-09T22:26:40;6.50;;;4.40;;
4385;SDS011;2207;53.540;10.042;2022-09-09T22:29:07;7.87;;;4.10;;
4385;SDS011;2207;53.540;10.042;2022-09-09T22:31:35;6.93;;;3.90;;
4385;SDS011;2207;53.540;10.042;2022-09-09T22:34:01;6.43;;;4.37;;
4385;SDS011;2207;53.540;10.042;2022-09-09T22:36:31;10.83;;;4.23;;
4385;SDS011;2207;53.540;10.042;2022-09-09T22:38:58;4.63;;;4.13;;
4385;SDS011;2207;53.540;10.042;2022-09-09T22:41:25;6.40;;;3.90;;
4385;SDS011;2207;53.540;10.042;2022-09-09T22:43:56;4.47;;;3.70;;
4385;SDS011;2207;53.540;10.042;2022-09-09T22:46:23;5.63;;;4.20;;
4385;SDS011;2207;53.540;10.042;2022-09-09T22:48:50;8.00;;;4.03;;
4385;SDS011;2207;53.540;10.042;2022-09-09T22:51:17;7.43;;;5.40;;
4385;SDS011;2207;53.540;10.042;2022-09-09T22:53:46;4.90;;;4.40;;
4385;SDS011;2207;53.540;10.042;2022-09-09T22:56:13;7.33;;;4.20;;
4385;SDS011;2207;53.540;10.042;2022-09-09T22:58:42;5.10;;;4.23;;
4385;SDS011;2207;53.540;10.042;2022-09-09T23:01:10;8.57;;;5.10;;
4385;SDS011;2207;53.540;10.042;2022-09-09T23:03:39;10.80;;;5.37;;
4385;SDS011;2207;53.540;10.042;2022-09-09T23:06:10;6.40;;;5.77;;
4385;SDS011;2207;53.540;10.042;2022-09-09T23:08:47;6.20;;;5.10;;
4385;SDS011;2207;53.540;10.042;2022-09-09T23:11:16;6.50;;;5.13;;
4385;SDS011;2207;53.540;10.042;2022-09-09T23:13:46;7.13;;;5.40;;
4385;SDS011;2207;53.540;10.042;2022-09-09T23:16:16;7.90;;;5.13;;
4385;SDS011;2207;53.540;10.042;2022-09-09T23:18:44;7.67;;;5.23;;
4385;SDS011;2207;53.540;10.042;2022-09-09T23:21:12;7.70;;;5.67;;
